sensor_id;sensor_type;location;lat;lon;timestamp;pressure;altitude;pressure_sealevel;temperature;humidity
30935;BME280;51033;42.648;23.292;2024-02-28T00:02:23;94175.66;;;9.40;48.78
30935;BME280;51033;42.648;23.292;2024-02-28T00:04:48;94164.06;;;9.36;48.93
30935;BME280;51033;42.648;23.292;2024-02-28T00:07:14;94165.53;;;9.42;48.75
30935;BME280;51033;42.648;23.292;2024-02-28T00:09:39;94173.00;;;9.40;48.91
30935;BME280;51033;42.648;23.292;2024-02-28T00:12:05;94174.50;;;9.33;49.21
30935;BME280;51033;42.648;23.292;2024-02-28T00:14:30;94151.78;;;9.13;48.96
30935;BME280;51033;42.648;23.292;2024-02-28T00:16:55;94172.91;;;9.32;49.31
30935;BME280;51033;42.648;23.292;2024-02-28T00:19:21;94148.94;;;9.23;48.87
30935;BME280;51033;42.648;23.292;2024-02-28T00:21:47;94160.78;;;9.39;48.99
30935;BME280;51033;42.648;23.292;2024-02-28T00:24:13;94157.28;;;9.30;48.84
30935;BME280;51033;42.648;23.292;2024-02-28T00:26:42;94183.72;;;9.35;49.10
30935;BME280;51033;42.648;23.292;2024-02-28T00:29:09;94178.22;;;9.32;49.05
30935;BME280;51033;42.648;23.292;2024-02-28T00:31:34;94178.03;;;9.28;48.97
30935;BME280;51033;42.648;23.292;2024-02-28T00:33:59;94170.63;;;9.25;48.94
30935;BME280;51033;42.648;23.292;2024-02-28T00:36:25;94174.97;;;9.21;49.16
30935;BME280;51033;42.648;23.292;2024-02-28T00:38:50;94171.72;;;9.24;48.91
30935;BME280;51033;42.648;23.292;2024-02-28T00:41:16;94161.41;;;9.09;49.13
30935;BME280;51033;42.648;23.292;2024-02-28T00:43:41;94169.94;;;9.20;49.12
30935;BME280;51033;42.648;23.292;2024-02-28T00:46:06;94162.50;;;9.22;49.02
30935;BME280;51033;42.648;23.292;2024-02-28T00:48:36;94163.09;;;9.19;49.42
30935;BME280;51033;42.648;23.292;2024-02-28T00:51:02;94170.84;;;9.15;49.38
30935;BME280;51033;42.648;23.292;2024-02-28T00:53:28;94157.56;;;9.15;49.58
30935;BME280;51033;42.648;23.292;2024-02-28T00:55:53;94171.34;;;9.17;49.79
30935;BME280;51033;42.648;23.292;2024-02-28T00:58:20;94161.50;;;9.18;49.52
30935;BME280;51033;42.648;23.292;2024-02-28T01:00:46;94176.22;;;9.10;49.59
30935;BME280;51033;42.648;23.292;2024-02-28T01:03:11;94177.97;;;9.01;49.52
30935;BME280;51033;42.648;23.292;2024-02-28T01:05:39;94183.09;;;8.97;49.56
30935;BME280;51033;42.648;23.292;2024-02-28T01:08:05;94151.06;;;8.80;49.88
30935;BME280;51033;42.648;23.292;2024-02-28T01:10:31;94181.31;;;9.07;49.55
30935;BME280;51033;42.648;23.292;2024-02-28T01:12:57;94169.03;;;8.97;49.42
30935;BME280;51033;42.648;23.292;2024-02-28T01:15:22;94174.34;;;8.97;49.41
30935;BME280;51033;42.648;23.292;2024-02-28T01:17:48;94183.56;;;8.86;49.69
30935;BME280;51033;42.648;23.292;2024-02-28T01:20:13;94171.25;;;8.76;49.91
30935;BME280;51033;42.648;23.292;2024-02-28T01:22:39;94165.56;;;8.69;50.43
30935;BME280;51033;42.648;23.292;2024-02-28T01:25:05;94168.78;;;8.66;50.46
30935;BME280;51033;42.648;23.292;2024-02-28T01:27:31;94191.13;;;8.79;50.22
30935;BME280;51033;42.648;23.292;2024-02-28T01:29:57;94175.78;;;8.76;50.61
30935;BME280;51033;42.648;23.292;2024-02-28T01:32:22;94182.88;;;8.80;50.17
30935;BME280;51033;42.648;23.292;2024-02-28T01:34:48;94192.19;;;8.78;50.31
30935;BME280;51033;42.648;23.292;2024-02-28T01:37:13;94191.50;;;8.86;50.28
30935;BME280;51033;42.648;23.292;2024-02-28T01:39:40;94180.34;;;8.89;50.22
30935;BME280;51033;42.648;23.292;2024-02-28T01:42:05;94184.06;;;8.88;50.13
30935;BME280;51033;42.648;23.292;2024-02-28T01:44:30;94175.22;;;8.79;50.13
30935;BME280;51033;42.648;23.292;2024-02-28T01:46:56;94171.50;;;8.80;50.05
30935;BME280;51033;42.648;23.292;2024-02-28T01:49:23;94195.38;;;8.93;49.94
30935;BME280;51033;42.648;23.292;2024-02-28T01:51:50;94157.81;;;8.73;49.81
30935;BME280;51033;42.648;23.292;2024-02-28T01:54:18;94189.03;;;8.76;50.20
30935;BME280;51033;42.648;23.292;2024-02-28T01:56:43;94204.88;;;8.81;50.25
30935;BME280;51033;42.648;23.292;2024-02-28T01:59:09;94201.13;;;8.82;50.27
30935;BME280;51033;42.648;23.292;2024-02-28T02:01:36;94202.22;;;8.81;50.06
30935;BME280;51033;42.648;23.292;2024-02-28T02:04:03;94173.97;;;8.57;50.30
30935;BME280;51033;42.648;23.292;2024-02-28T02:06:28;94194.84;;;8.78;49.94
30935;BME280;51033;42.648;23.292;2024-02-28T02:08:54;94202.13;;;8.86;49.92
30935;BME280;51033;42.648;23.292;2024-02-28T02:11:20;94198.09;;;8.75;50.13
30935;BME280;51033;42.648;23.292;2024-02-28T02:13:50;94196.31;;;8.70;50.37
30935;BME280;51033;42.648;23.292;2024-02-28T02:16:16;94186.38;;;8.62;50.42
30935;BME280;51033;42.648;23.292;2024-02-28T02:18:42;94175.97;;;8.66;50.08
30935;BME280;51033;42.648;23.292;2024-02-28T02:21:08;94202.28;;;8.76;50.34
30935;BME280;51033;42.648;23.292;2024-02-28T02:23:35;94193.59;;;8.75;50.33
30935;BME280;51033;42.648;23.292;2024-02-28T02:26:04;94191.69;;;8.76;50.09
30935;BME280;51033;42.648;23.292;2024-02-28T02:28:29;94181.28;;;8.66;50.32
30935;BME280;51033;42.648;23.292;2024-02-28T02:30:55;94183.59;;;8.53;50.58
30935;BME280;51033;42.648;23.292;2024-02-28T02:33:20;94188.13;;;8.53;50.51
30935;BME280;51033;42.648;23.292;2024-02-28T02:35:45;94189.50;;;8.50;50.69
30935;BME280;51033;42.648;23.292;2024-02-28T02:38:11;94183.56;;;8.40;50.48
30935;BME280;51033;42.648;23.292;2024-02-28T02:40:36;94196.44;;;8.46;50.53
30935;BME280;51033;42.648;23.292;2024-02-28T02:43:02;94186.41;;;8.43;50.80
30935;BME280;51033;42.648;23.292;2024-02-28T02:45:30;94201.25;;;8.44;50.78
30935;BME280;51033;42.648;23.292;2024-02-28T02:47:55;94189.75;;;8.35;50.75
30935;BME280;51033;42.648;23.292;2024-02-28T02:50:21;94193.78;;;8.46;50.78
30935;BME280;51033;42.648;23.292;2024-02-28T02:52:46;94196.75;;;8.45;50.55
30935;BME280;51033;42.648;23.292;2024-02-28T02:55:12;94203.69;;;8.41;50.63
30935;BME280;51033;42.648;23.292;2024-02-28T02:57:37;94181.78;;;8.35;50.50
30935;BME280;51033;42.648;23.292;2024-02-28T03:00:03;94181.56;;;8.32;50.75
30935;BME280;51033;42.648;23.292;2024-02-28T03:02:28;94191.59;;;8.35;51.10
30935;BME280;51033;42.648;23.292;2024-02-28T03:04:54;94171.03;;;8.27;50.87
30935;BME280;51033;42.648;23.292;2024-02-28T03:07:19;94196.50;;;8.41;50.61
30935;BME280;51033;42.648;23.292;2024-02-28T03:09:44;94195.31;;;8.34;50.59
30935;BME280;51033;42.648;23.292;2024-02-28T03:12:10;94198.31;;;8.27;50.70
30935;BME280;51033;42.648;23.292;2024-02-28T03:14:35;94199.00;;;8.19;51.13
30935;BME280;51033;42.648;23.292;2024-02-28T03:17:01;94191.13;;;8.14;51.13
30935;BME280;51033;42.648;23.292;2024-02-28T03:19:27;94202.06;;;8.26;51.14
30935;BME280;51033;42.648;23.292;2024-02-28T03:21:52;94162.06;;;8.09;50.64
30935;BME280;51033;42.648;23.292;2024-02-28T03:24:18;94199.91;;;8.28;50.63
30935;BME280;51033;42.648;23.292;2024-02-28T03:26:43;94203.53;;;8.32;50.77
30935;BME280;51033;42.648;23.292;2024-02-28T03:29:09;94204.22;;;8.24;50.80
30935;BME280;51033;42.648;23.292;2024-02-28T03:31:35;94187.59;;;8.19;50.66
30935;BME280;51033;42.648;23.292;2024-02-28T03:34:00;94208.59;;;8.15;50.93
30935;BME280;51033;42.648;23.292;2024-02-28T03:36:27;94197.47;;;8.13;50.95
30935;BME280;51033;42.648;23.292;2024-02-28T03:38:53;94204.63;;;8.12;50.82
30935;BME280;51033;42.648;23.292;2024-02-28T03:41:18;94214.56;;;8.07;51.20
30935;BME280;51033;42.648;23.292;2024-02-28T03:43:44;94207.16;;;8.04;51.27
30935;BME280;51033;42.648;23.292;2024-02-28T03:46:09;94211.91;;;8.07;51.12
30935;BME280;51033;42.648;23.292;2024-02-28T03:48:35;94205.16;;;7.96;51.02
30935;BME280;51033;42.648;23.292;2024-02-28T03:51:00;94212.25;;;8.00;51.42
30935;BME280;51033;42.648;23.292;2024-02-28T03:53:25;94169.53;;;7.64;51.56
30935;BME280;51033;42.648;23.292;2024-02-28T03:55:51;94201.59;;;7.87;51.22
30935;BME280;51033;42.648;23.292;2024-02-28T03:58:17;94217.81;;;7.99;51.35
30935;BME280;51033;42.648;23.292;2024-02-28T04:00:42;94209.47;;;7.92;51.42
30935;BME280;51033;42.648;23.292;2024-02-28T04:03:09;94225.97;;;8.02;51.23
30935;BME280;51033;42.648;23.292;2024-02-28T04:05:35;94206.31;;;7.90;51.46
30935;BME280;51033;42.648;23.292;2024-02-28T04:08:00;94212.53;;;7.99;51.06
30935;BME280;51033;42.648;23.292;2024-02-28T04:10:26;94213.84;;;8.01;51.28
30935;BME280;51033;42.648;23.292;2024-02-28T04:12:51;94203.00;;;7.98;51.46
30935;BME280;51033;42.648;23.292;2024-02-28T04:15:17;94207.81;;;7.96;51.31
30935;BME280;51033;42.648;23.292;2024-02-28T04:17:42;94212.31;;;7.95;51.72
30935;BME280;51033;42.648;23.292;2024-02-28T04:20:11;94211.00;;;7.93;51.58
30935;BME280;51033;42.648;23.292;2024-02-28T04:22:37;94206.75;;;7.97;51.51
30935;BME280;51033;42.648;23.292;2024-02-28T04:25:04;94187.31;;;7.83;51.81
30935;BME280;51033;42.648;23.292;2024-02-28T04:27:30;94200.94;;;7.95;51.78
30935;BME280;51033;42.648;23.292;2024-02-28T04:29:55;94205.66;;;7.98;51.76
30935;BME280;51033;42.648;23.292;2024-02-28T04:32:20;94191.78;;;7.87;51.90
30935;BME280;51033;42.648;23.292;2024-02-28T04:34:46;94206.75;;;7.97;51.67
30935;BME280;51033;42.648;23.292;2024-02-28T04:37:11;94193.13;;;7.85;51.84
30935;BME280;51033;42.648;23.292;2024-02-28T04:39:36;94210.94;;;7.79;51.79
30935;BME280;51033;42.648;23.292;2024-02-28T04:42:02;94204.06;;;7.78;52.19
30935;BME280;51033;42.648;23.292;2024-02-28T04:44:27;94205.84;;;7.83;51.89
30935;BME280;51033;42.648;23.292;2024-02-28T04:46:53;94212.47;;;7.85;51.94
30935;BME280;51033;42.648;23.292;2024-02-28T04:49:18;94200.88;;;7.81;51.88
30935;BME280;51033;42.648;23.292;2024-02-28T04:51:43;94214.53;;;7.88;52.14
30935;BME280;51033;42.648;23.292;2024-02-28T04:54:09;94220.06;;;7.92;51.80
30935;BME280;51033;42.648;23.292;2024-02-28T04:56:42;94216.81;;;7.95;51.72
30935;BME280;51033;42.648;23.292;2024-02-28T04:59:08;94214.75;;;7.92;51.40
30935;BME280;51033;42.648;23.292;2024-02-28T05:01:34;94222.53;;;7.83;51.68
30935;BME280;51033;42.648;23.292;2024-02-28T05:04:00;94197.88;;;7.64;52.11
30935;BME280;51033;42.648;23.292;2024-02-28T05:06:26;94228.75;;;7.73;52.03
30935;BME280;51033;42.648;23.292;2024-02-28T05:08:51;94224.78;;;7.76;51.67
30935;BME280;51033;42.648;23.292;2024-02-28T05:11:16;94226.38;;;7.72;51.76
30935;BME280;51033;42.648;23.292;2024-02-28T05:13:42;94240.38;;;7.78;51.72
30935;BME280;51033;42.648;23.292;2024-02-28T05:16:14;94220.44;;;7.61;52.37
30935;BME280;51033;42.648;23.292;2024-02-28T05:18:40;94247.81;;;7.52;52.79
30935;BME280;51033;42.648;23.292;2024-02-28T05:21:05;94250.94;;;7.54;52.74
30935;BME280;51033;42.648;23.292;2024-02-28T05:23:31;94243.84;;;7.49;53.00
30935;BME280;51033;42.648;23.292;2024-02-28T05:25:56;94253.53;;;7.59;52.57
30935;BME280;51033;42.648;23.292;2024-02-28T05:28:23;94257.09;;;7.49;53.16
30935;BME280;51033;42.648;23.292;2024-02-28T05:30:48;94254.44;;;7.49;53.85
30935;BME280;51033;42.648;23.292;2024-02-28T05:33:13;94244.16;;;7.48;53.69
30935;BME280;51033;42.648;23.292;2024-02-28T05:35:39;94258.03;;;7.58;53.66
30935;BME280;51033;42.648;23.292;2024-02-28T05:38:04;94257.13;;;7.68;53.35
30935;BME280;51033;42.648;23.292;2024-02-28T05:40:29;94262.19;;;7.64;53.42
30935;BME280;51033;42.648;23.292;2024-02-28T05:42:55;94279.16;;;7.63;53.80
30935;BME280;51033;42.648;23.292;2024-02-28T05:45:20;94268.28;;;7.65;53.80
30935;BME280;51033;42.648;23.292;2024-02-28T05:47:45;94275.44;;;7.64;53.87
30935;BME280;51033;42.648;23.292;2024-02-28T05:50:11;94275.75;;;7.63;53.49
30935;BME280;51033;42.648;23.292;2024-02-28T05:52:38;94274.31;;;7.70;53.79
30935;BME280;51033;42.648;23.292;2024-02-28T05:55:03;94272.72;;;7.69;54.04
30935;BME280;51033;42.648;23.292;2024-02-28T05:57:29;94292.06;;;7.94;53.94
30935;BME280;51033;42.648;23.292;2024-02-28T05:59:54;94280.31;;;8.00;53.61
30935;BME280;51033;42.648;23.292;2024-02-28T06:02:19;94291.84;;;7.90;54.14
30935;BME280;51033;42.648;23.292;2024-02-28T06:04:45;94287.47;;;7.81;54.72
30935;BME280;51033;42.648;23.292;2024-02-28T06:07:10;94293.19;;;7.88;55.23
30935;BME280;51033;42.648;23.292;2024-02-28T06:09:36;94283.16;;;7.85;55.16
30935;BME280;51033;42.648;23.292;2024-02-28T06:12:01;94291.00;;;7.95;54.92
30935;BME280;51033;42.648;23.292;2024-02-28T06:14:29;94297.59;;;8.16;54.55
30935;BME280;51033;42.648;23.292;2024-02-28T06:16:55;94297.66;;;8.11;54.94
30935;BME280;51033;42.648;23.292;2024-02-28T06:19:20;94302.84;;;8.21;54.97
30935;BME280;51033;42.648;23.292;2024-02-28T06:21:45;94302.69;;;8.31;54.86
30935;BME280;51033;42.648;23.292;2024-02-28T06:24:11;94292.00;;;8.18;55.30
30935;BME280;51033;42.648;23.292;2024-02-28T06:26:36;94306.03;;;8.37;55.12
30935;BME280;51033;42.648;23.292;2024-02-28T06:29:01;94302.19;;;8.48;54.87
30935;BME280;51033;42.648;23.292;2024-02-28T06:31:29;94309.47;;;8.37;55.39
30935;BME280;51033;42.648;23.292;2024-02-28T06:33:56;94292.66;;;8.28;55.66
30935;BME280;51033;42.648;23.292;2024-02-28T06:36:21;94312.13;;;8.37;55.65
30935;BME280;51033;42.648;23.292;2024-02-28T06:38:47;94313.00;;;8.51;55.69
30935;BME280;51033;42.648;23.292;2024-02-28T06:41:12;94295.09;;;8.43;55.13
30935;BME280;51033;42.648;23.292;2024-02-28T06:43:38;94310.97;;;8.06;57.09
30935;BME280;51033;42.648;23.292;2024-02-28T06:46:03;94318.91;;;7.87;57.89
30935;BME280;51033;42.648;23.292;2024-02-28T06:48:29;94314.50;;;8.20;57.04
30935;BME280;51033;42.648;23.292;2024-02-28T06:50:55;94309.34;;;8.29;56.15
30935;BME280;51033;42.648;23.292;2024-02-28T06:53:21;94317.28;;;8.47;56.32
30935;BME280;51033;42.648;23.292;2024-02-28T06:55:47;94317.19;;;8.71;55.24
30935;BME280;51033;42.648;23.292;2024-02-28T06:58:16;94316.53;;;8.98;54.61
30935;BME280;51033;42.648;23.292;2024-02-28T07:00:42;94310.22;;;8.94;54.30
30935;BME280;51033;42.648;23.292;2024-02-28T07:03:08;94308.09;;;9.10;54.16
30935;BME280;51033;42.648;23.292;2024-02-28T07:05:33;94314.06;;;9.01;54.58
30935;BME280;51033;42.648;23.292;2024-02-28T07:07:59;94278.88;;;8.96;54.74
30935;BME280;51033;42.648;23.292;2024-02-28T07:10:25;94303.03;;;9.13;53.88
30935;BME280;51033;42.648;23.292;2024-02-28T07:12:50;94310.34;;;9.35;53.78
30935;BME280;51033;42.648;23.292;2024-02-28T07:15:16;94306.16;;;9.15;54.04
30935;BME280;51033;42.648;23.292;2024-02-28T07:17:44;94306.91;;;9.02;54.65
30935;BME280;51033;42.648;23.292;2024-02-28T07:20:10;94293.41;;;9.17;53.84
30935;BME280;51033;42.648;23.292;2024-02-28T07:22:35;94313.13;;;9.57;52.76
30935;BME280;51033;42.648;23.292;2024-02-28T07:25:01;94295.91;;;9.68;52.26
30935;BME280;51033;42.648;23.292;2024-02-28T07:27:26;94296.88;;;9.59;52.23
30935;BME280;51033;42.648;23.292;2024-02-28T07:29:52;94318.13;;;9.59;52.17
30935;BME280;51033;42.648;23.292;2024-02-28T07:32:17;94276.66;;;9.63;52.05
30935;BME280;51033;42.648;23.292;2024-02-28T07:34:42;94294.47;;;9.16;53.44
30935;BME280;51033;42.648;23.292;2024-02-28T07:37:08;94304.75;;;9.64;52.67
30935;BME280;51033;42.648;23.292;2024-02-28T07:39:33;94316.88;;;9.97;51.40
30935;BME280;51033;42.648;23.292;2024-02-28T07:41:58;94318.25;;;9.81;51.74
30935;BME280;51033;42.648;23.292;2024-02-28T07:44:25;94316.59;;;9.58;52.50
30935;BME280;51033;42.648;23.292;2024-02-28T07:46:50;94323.34;;;9.50;52.65
30935;BME280;51033;42.648;23.292;2024-02-28T07:49:16;94295.00;;;9.18;53.04
30935;BME280;51033;42.648;23.292;2024-02-28T07:51:41;94322.97;;;9.57;53.35
30935;BME280;51033;42.648;23.292;2024-02-28T07:54:07;94324.41;;;9.35;53.28
30935;BME280;51033;42.648;23.292;2024-02-28T07:56:32;94320.69;;;9.04;54.50
30935;BME280;51033;42.648;23.292;2024-02-28T07:58:58;94320.22;;;9.48;53.73
30935;BME280;51033;42.648;23.292;2024-02-28T08:01:23;94320.03;;;9.72;52.95
30935;BME280;51033;42.648;23.292;2024-02-28T08:03:48;94308.91;;;9.97;52.82
30935;BME280;51033;42.648;23.292;2024-02-28T08:06:14;94313.63;;;10.00;51.89
30935;BME280;51033;42.648;23.292;2024-02-28T08:08:43;94313.50;;;9.51;53.23
30935;BME280;51033;42.648;23.292;2024-02-28T08:11:10;94318.22;;;10.08;52.51
30935;BME280;51033;42.648;23.292;2024-02-28T08:13:36;94310.97;;;10.00;51.48
30935;BME280;51033;42.648;23.292;2024-02-28T08:16:01;94313.38;;;10.24;51.70
30935;BME280;51033;42.648;23.292;2024-02-28T08:18:27;94313.69;;;10.36;51.37
30935;BME280;51033;42.648;23.292;2024-02-28T08:20:53;94301.28;;;10.31;51.08
30935;BME280;51033;42.648;23.292;2024-02-28T08:23:22;94319.00;;;10.22;51.22
30935;BME280;51033;42.648;23.292;2024-02-28T08:25:48;94303.88;;;10.59;50.65
30935;BME280;51033;42.648;23.292;2024-02-28T08:28:13;94306.91;;;10.88;49.67
30935;BME280;51033;42.648;23.292;2024-02-28T08:30:39;94305.06;;;10.89;49.51
30935;BME280;51033;42.648;23.292;2024-02-28T08:33:06;94291.00;;;10.97;49.32
30935;BME280;51033;42.648;23.292;2024-02-28T08:35:34;94311.44;;;10.65;49.84
30935;BME280;51033;42.648;23.292;2024-02-28T08:37:59;94310.78;;;10.82;49.65
30935;BME280;51033;42.648;23.292;2024-02-28T08:40:24;94293.00;;;10.91;49.96
30935;BME280;51033;42.648;23.292;2024-02-28T08:42:51;94289.63;;;10.55;49.69
30935;BME280;51033;42.648;23.292;2024-02-28T08:45:18;94304.22;;;10.44;50.27
30935;BME280;51033;42.648;23.292;2024-02-28T08:47:43;94296.00;;;10.04;51.10
30935;BME280;51033;42.648;23.292;2024-02-28T08:50:09;94294.44;;;10.53;50.17
30935;BME280;51033;42.648;23.292;2024-02-28T08:52:35;94298.03;;;10.70;50.08
30935;BME280;51033;42.648;23.292;2024-02-28T08:55:01;94293.75;;;10.61;50.14
30935;BME280;51033;42.648;23.292;2024-02-28T08:57:26;94288.06;;;10.98;49.41
30935;BME280;51033;42.648;23.292;2024-02-28T08:59:53;94297.81;;;11.11;49.57
30935;BME280;51033;42.648;23.292;2024-02-28T09:02:18;94302.16;;;11.52;48.67
30935;BME280;51033;42.648;23.292;2024-02-28T09:04:44;94299.59;;;11.47;48.15
30935;BME280;51033;42.648;23.292;2024-02-28T09:07:11;94297.91;;;11.51;47.91
30935;BME280;51033;42.648;23.292;2024-02-28T09:09:42;94296.56;;;11.40;47.87
30935;BME280;51033;42.648;23.292;2024-02-28T09:12:08;94302.22;;;11.69;47.18
30935;BME280;51033;42.648;23.292;2024-02-28T09:14:33;94299.91;;;11.76;47.53
30935;BME280;51033;42.648;23.292;2024-02-28T09:16:59;94307.88;;;11.45;48.08
30935;BME280;51033;42.648;23.292;2024-02-28T09:19:31;94306.41;;;11.53;47.86
30935;BME280;51033;42.648;23.292;2024-02-28T09:21:57;94291.25;;;10.87;49.39
30935;BME280;51033;42.648;23.292;2024-02-28T09:24:24;94300.47;;;11.34;48.68
30935;BME280;51033;42.648;23.292;2024-02-28T09:26:49;94293.41;;;11.29;48.92
30935;BME280;51033;42.648;23.292;2024-02-28T09:29:15;94287.63;;;11.36;49.44
30935;BME280;51033;42.648;23.292;2024-02-28T09:31:40;94289.00;;;11.02;49.84
30935;BME280;51033;42.648;23.292;2024-02-28T09:34:06;94293.91;;;11.40;49.15
30935;BME280;51033;42.648;23.292;2024-02-28T09:36:43;94275.59;;;10.63;50.92
30935;BME280;51033;42.648;23.292;2024-02-28T09:39:14;94287.69;;;10.91;50.75
30935;BME280;51033;42.648;23.292;2024-02-28T09:41:42;94275.34;;;10.73;50.72
30935;BME280;51033;42.648;23.292;2024-02-28T09:44:08;94277.38;;;11.21;49.95
30935;BME280;51033;42.648;23.292;2024-02-28T09:46:34;94256.03;;;11.43;49.28
30935;BME280;51033;42.648;23.292;2024-02-28T09:49:03;94248.75;;;11.57;48.54
30935;BME280;51033;42.648;23.292;2024-02-28T09:51:33;94267.13;;;11.67;48.29
30935;BME280;51033;42.648;23.292;2024-02-28T09:54:05;94259.16;;;11.84;48.28
30935;BME280;51033;42.648;23.292;2024-02-28T09:56:31;94266.72;;;11.99;47.69
30935;BME280;51033;42.648;23.292;2024-02-28T09:58:58;94262.19;;;11.91;46.99
30935;BME280;51033;42.648;23.292;2024-02-28T10:01:25;94251.50;;;11.91;46.68
30935;BME280;51033;42.648;23.292;2024-02-28T10:03:52;94252.88;;;11.72;47.50
30935;BME280;51033;42.648;23.292;2024-02-28T10:06:18;94248.25;;;11.55;47.88
30935;BME280;51033;42.648;23.292;2024-02-28T10:08:44;94262.25;;;11.69;47.63
30935;BME280;51033;42.648;23.292;2024-02-28T10:11:20;94269.47;;;11.38;48.44
30935;BME280;51033;42.648;23.292;2024-02-28T10:13:49;94263.59;;;11.18;49.07
30935;BME280;51033;42.648;23.292;2024-02-28T10:16:15;94229.31;;;11.56;48.36
30935;BME280;51033;42.648;23.292;2024-02-28T10:18:46;94253.94;;;11.62;48.37
30935;BME280;51033;42.648;23.292;2024-02-28T10:21:12;94246.91;;;11.66;47.68
30935;BME280;51033;42.648;23.292;2024-02-28T10:23:39;94262.09;;;11.35;48.78
30935;BME280;51033;42.648;23.292;2024-02-28T10:26:05;94263.19;;;11.34;49.13
30935;BME280;51033;42.648;23.292;2024-02-28T10:28:31;94245.22;;;11.39;48.48
30935;BME280;51033;42.648;23.292;2024-02-28T10:30:57;94241.63;;;11.44;48.73
30935;BME280;51033;42.648;23.292;2024-02-28T10:33:26;94217.16;;;11.73;48.55
30935;BME280;51033;42.648;23.292;2024-02-28T10:35:54;94241.44;;;11.71;47.96
30935;BME280;51033;42.648;23.292;2024-02-28T10:38:21;94229.66;;;11.64;48.29
30935;BME280;51033;42.648;23.292;2024-02-28T10:40:47;94229.81;;;11.67;48.16
30935;BME280;51033;42.648;23.292;2024-02-28T10:43:15;94221.41;;;11.82;48.02
30935;BME280;51033;42.648;23.292;2024-02-28T10:45:42;94216.06;;;11.82;47.83
30935;BME280;51033;42.648;23.292;2024-02-28T10:48:08;94215.88;;;11.79;47.79
30935;BME280;51033;42.648;23.292;2024-02-28T10:50:33;94218.88;;;11.77;47.92
30935;BME280;51033;42.648;23.292;2024-02-28T10:53:03;94212.03;;;12.02;47.05
30935;BME280;51033;42.648;23.292;2024-02-28T10:55:34;94217.66;;;12.18;46.73
30935;BME280;51033;42.648;23.292;2024-02-28T10:58:08;94203.56;;;12.26;45.65
30935;BME280;51033;42.648;23.292;2024-02-28T11:00:36;94212.81;;;12.28;45.53
30935;BME280;51033;42.648;23.292;2024-02-28T11:03:04;94199.63;;;12.49;45.52
30935;BME280;51033;42.648;23.292;2024-02-28T11:05:40;94206.38;;;12.89;44.47
30935;BME280;51033;42.648;23.292;2024-02-28T11:08:29;94206.97;;;13.04;44.70
30935;BME280;51033;42.648;23.292;2024-02-28T11:10:58;94192.19;;;12.98;43.62
30935;BME280;51033;42.648;23.292;2024-02-28T11:13:25;94197.59;;;12.72;43.51
30935;BME280;51033;42.648;23.292;2024-02-28T11:15:52;94189.44;;;12.34;44.00
30935;BME280;51033;42.648;23.292;2024-02-28T11:18:17;94192.41;;;12.24;43.93
30935;BME280;51033;42.648;23.292;2024-02-28T11:20:46;94185.69;;;12.35;43.15
30935;BME280;51033;42.648;23.292;2024-02-28T11:23:14;94179.22;;;12.27;42.92
30935;BME280;51033;42.648;23.292;2024-02-28T11:25:40;94165.13;;;12.35;42.68
30935;BME280;51033;42.648;23.292;2024-02-28T11:28:05;94179.09;;;12.41;42.56
30935;BME280;51033;42.648;23.292;2024-02-28T11:30:32;94173.44;;;12.68;42.02
30935;BME280;51033;42.648;23.292;2024-02-28T11:32:57;94180.63;;;12.76;42.52
30935;BME280;51033;42.648;23.292;2024-02-28T11:35:24;94174.22;;;12.69;41.83
30935;BME280;51033;42.648;23.292;2024-02-28T11:37:50;94169.28;;;12.97;41.11
30935;BME280;51033;42.648;23.292;2024-02-28T11:40:16;94157.03;;;12.96;41.03
30935;BME280;51033;42.648;23.292;2024-02-28T11:42:41;94166.63;;;13.35;41.10
30935;BME280;51033;42.648;23.292;2024-02-28T11:45:10;94161.81;;;13.19;40.36
30935;BME280;51033;42.648;23.292;2024-02-28T11:47:36;94166.13;;;13.41;39.56
30935;BME280;51033;42.648;23.292;2024-02-28T11:50:02;94165.16;;;13.46;39.76
30935;BME280;51033;42.648;23.292;2024-02-28T11:52:31;94155.44;;;13.41;39.39
30935;BME280;51033;42.648;23.292;2024-02-28T11:54:56;94142.91;;;12.86;40.08
30935;BME280;51033;42.648;23.292;2024-02-28T11:57:22;94152.63;;;13.00;40.31
30935;BME280;51033;42.648;23.292;2024-02-28T11:59:47;94145.94;;;12.76;40.18
30935;BME280;51033;42.648;23.292;2024-02-28T12:02:16;94152.84;;;12.77;40.39
30935;BME280;51033;42.648;23.292;2024-02-28T12:04:42;94135.25;;;12.85;40.48
30935;BME280;51033;42.648;23.292;2024-02-28T12:07:09;94115.47;;;13.15;40.95
30935;BME280;51033;42.648;23.292;2024-02-28T12:09:35;94146.06;;;13.64;39.84
30935;BME280;51033;42.648;23.292;2024-02-28T12:12:01;94143.34;;;13.35;40.25
30935;BME280;51033;42.648;23.292;2024-02-28T12:14:27;94138.13;;;13.47;40.35
30935;BME280;51033;42.648;23.292;2024-02-28T12:16:53;94128.59;;;13.67;39.30
30935;BME280;51033;42.648;23.292;2024-02-28T12:19:18;94131.31;;;13.58;39.69
30935;BME280;51033;42.648;23.292;2024-02-28T12:21:46;94119.75;;;13.96;39.18
30935;BME280;51033;42.648;23.292;2024-02-28T12:24:12;94122.75;;;13.44;39.45
30935;BME280;51033;42.648;23.292;2024-02-28T12:26:39;94112.44;;;13.25;38.70
30935;BME280;51033;42.648;23.292;2024-02-28T12:29:04;94123.28;;;13.29;38.83
30935;BME280;51033;42.648;23.292;2024-02-28T12:31:30;94121.72;;;13.57;39.13
30935;BME280;51033;42.648;23.292;2024-02-28T12:33:55;94102.31;;;13.90;38.54
30935;BME280;51033;42.648;23.292;2024-02-28T12:36:21;94107.75;;;14.02;38.32
30935;BME280;51033;42.648;23.292;2024-02-28T12:38:47;94108.78;;;13.89;38.60
30935;BME280;51033;42.648;23.292;2024-02-28T12:41:13;94092.78;;;13.59;39.29
30935;BME280;51033;42.648;23.292;2024-02-28T12:43:39;94127.06;;;13.87;39.48
30935;BME280;51033;42.648;23.292;2024-02-28T12:46:05;94116.06;;;13.80;39.87
30935;BME280;51033;42.648;23.292;2024-02-28T12:48:31;94097.38;;;14.00;39.70
30935;BME280;51033;42.648;23.292;2024-02-28T12:50:56;94114.91;;;13.68;41.53
30935;BME280;51033;42.648;23.292;2024-02-28T12:53:22;94107.63;;;13.78;40.60